Time;durP1;ratioP1;P1;durP2;ratioP2;P2;SDS_P1;SDS_P2;PMS_P1;PMS_P2;Temp;Humidity;BMP_temperature;BMP_pressure;BME280_temperature;BME280_humidity;BME280_pressure;Samples;Min_cycle;Max_cycle;Signal;HPM_P1;HPM_P2
2022/11/13 00:00:00;;;;;;;;;;;;;;;;;;5051968;28;2014;-49
2022/11/13 00:02:47;;;;;;;;;;;;;;;;;;5053274;28;1982;-53
2022/11/13 00:05:33;;;;;;;;;;;;;;;;;;5052724;28;1775;-50
2022/11/13 00:08:19;;;;;;;;;;;;;;;;;;5053204;28;2018;-49
2022/11/13 00:11:08;;;;;;;;;;;;;;;;;;5052880;28;1843;-48
2022/11/13 00:13:53;;;;;;;;;;;;;;;;;;5052692;28;2113;-50
2022/11/13 00:16:39;;;;;;;;;;;;;;;;;;5052707;28;1943;-49
2022/11/13 00:19:25;;;;;;;;;;;;;;;;;;5052712;28;1870;-50
2022/11/13 00:22:11;;;;;;;;;;;;;;;;;;5052520;28;2033;-51
2022/11/13 00:24:56;;;;;;;;;;;;;;;;;;5052614;28;2101;-51
2022/11/13 00:27:42;;;;;;;;;;;;;;;;;;5052301;28;1813;-51
2022/11/13 00:30:28;;;;;;;;;;;;;;;;;;5052317;28;1814;-51
2022/11/13 00:33:13;;;;;;;;;;;;;;;;;;5052710;28;2000;-51
2022/11/13 00:36:13;;;;;;;;;;;;;;;;;;5052440;28;1965;-49
2022/11/13 00:38:59;;;;;;;;;;;;;;;;;;5052273;28;1813;-48
2022/11/13 00:41:45;;;;;;;;;;;;;;;;;;5052253;28;1922;-49
2022/11/13 00:44:30;;;;;;;;;;;;;;;;;;5039376;28;1864;-51
2022/11/13 00:47:16;;;;;;;;;;;;;;;;;;5032321;28;2129;-48
2022/11/13 00:50:02;;;;;;;;;;;;;;;;;;5032405;28;1897;-48
2022/11/13 00:52:48;;;;;;;;;;;;;;;;;;5032086;28;2030;-52
2022/11/13 00:55:33;;;;;;;;;;;;;;;;;;5032049;28;1988;-48
2022/11/13 00:58:19;;;;;;;;;;;;;;;;;;5032183;28;2038;-53
2022/11/13 01:01:10;;;;;;;;;;;;;;;;;;5032062;28;2011;-47
2022/11/13 01:03:56;;;;;;;;;;;;;;;;;;5031828;28;1899;-50
2022/11/13 01:06:43;;;;;;;;;;;;;;;;;;5031978;28;2072;-48
2022/11/13 01:09:29;;;;;;;;;;;;;;;;;;5031781;28;1957;-52
2022/11/13 01:12:15;;;;;;;;;;;;;;;;;;5031785;28;2066;-51
2022/11/13 01:15:01;;;;;;;;;;;;;;;;;;5040601;28;1981;-48
2022/11/13 01:17:47;;;;;;;;;;;;;;;;;;5051414;28;1903;-52
2022/11/13 01:20:33;;;;;;;;;;;;;;;;;;5051575;28;2160;-52
2022/11/13 01:23:20;;;;;;;;;;;;;;;;;;5051536;28;1891;-51
2022/11/13 01:26:06;;;;;;;;;;;;;;;;;;5051525;28;2010;-49
2022/11/13 01:28:53;;;;;;;;;;;;;;;;;;5051665;28;1919;-53
2022/11/13 01:31:40;;;;;;;;;;;;;;;;;;5051364;28;2044;-52
2022/11/13 01:34:26;;;;;;;;;;;;;;;;;;5050441;28;1900;-49
2022/11/13 01:37:12;;;;;;;;;;;;;;;;;;5051124;28;1982;-52
2022/11/13 01:39:58;;;;;;;;;;;;;;;;;;5051366;28;1959;-49
2022/11/13 01:42:44;;;;;;;;;;;;;;;;;;5051317;28;2190;-49
2022/11/13 01:46:04;;;;;;;;;;;;;;;;;;5031181;28;1917;-48
2022/11/13 01:48:52;;;;;;;;;;;;;;;;;;5031433;28;2064;-46
2022/11/13 01:51:49;;;;;;;;;;;;;;;;;;5031113;28;1890;-51
2022/11/13 01:54:41;;;;;;;;;;;;;;;;;;5031266;28;1987;-50
2022/11/13 01:57:27;;;;;;;;;;;;;;;;;;5031203;28;2003;-50
2022/11/13 02:00:13;;;;;;;;;;;;;;;;;;5030910;28;1836;-52
2022/11/13 02:02:59;;;;;;;;;;;;;;;;;;5031047;28;1948;-47
2022/11/13 02:05:45;;;;;;;;;;;;;;;;;;5050758;28;1950;-50
2022/11/13 02:08:31;;;;;;;;;;;;;;;;;;5050861;28;2020;-52
2022/11/13 02:11:16;;;;;;;;;;;;;;;;;;5050876;28;2083;-48
2022/11/13 02:14:03;;;;;;;;;;;;;;;;;;5051112;28;2255;-52
2022/11/13 02:16:51;;;;;;;;;;;;;;;;;;5050902;28;1933;-50
2022/11/13 02:19:39;;;;;;;;;;;;;;;;;;5050905;28;1940;-51
2022/11/13 02:23:01;;;;;;;;;;;;;;;;;;5050863;28;2067;-51
2022/11/13 02:25:49;;;;;;;;;;;;;;;;;;4989414;28;1835;-49
2022/11/13 02:28:35;;;;;;;;;;;;;;;;;;5050883;28;1970;-50
2022/11/13 02:31:21;;;;;;;;;;;;;;;;;;5050598;28;1972;-47
2022/11/13 02:34:07;;;;;;;;;;;;;;;;;;5050895;28;2170;-50
2022/11/13 02:36:53;;;;;;;;;;;;;;;;;;5049907;28;1948;-51
2022/11/13 02:39:39;;;;;;;;;;;;;;;;;;5050387;28;2032;-50
2022/11/13 02:42:25;;;;;;;;;;;;;;;;;;5050626;28;2091;-47
2022/11/13 02:45:11;;;;;;;;;;;;;;;;;;5050594;28;1972;-50
2022/11/13 02:47:58;;;;;;;;;;;;;;;;;;5050592;28;2134;-49
2022/11/13 02:50:45;;;;;;;;;;;;;;;;;;5050536;28;2013;-47
2022/11/13 02:53:31;;;;;;;;;;;;;;;;;;5050413;28;1996;-50
2022/11/13 02:56:17;;;;;;;;;;;;;;;;;;5050232;28;1983;-51
2022/11/13 02:59:03;;;;;;;;;;;;;;;;;;5050257;28;2089;-50
2022/11/13 03:01:49;;;;;;;;;;;;;;;;;;5050328;28;2020;-51
2022/11/13 03:04:34;;;;;;;;;;;;;;;;;;5050275;28;1990;-51
2022/11/13 03:07:41;;;;;;;;;;;;;;;;;;5053235;28;2100;-50
2022/11/13 03:10:26;;;;;;;;;;;;;;;;;;5053923;28;1921;-47
2022/11/13 03:13:12;;;;;;;;;;;;;;;;;;5053814;28;2074;-48
2022/11/13 03:16:04;;;;;;;;;;;;;;;;;;5054043;28;1979;-50
2022/11/13 03:18:50;;;;;;;;;;;;;;;;;;5054125;28;1965;-48
2022/11/13 03:21:36;;;;;;;;;;;;;;;;;;5053988;28;1974;-49
2022/11/13 03:24:21;;;;;;;;;;;;;;;;;;5054031;28;1951;-47
2022/11/13 03:27:08;;;;;;;;;;;;;;;;;;5053496;28;2182;-46
2022/11/13 03:29:54;;;;;;;;;;;;;;;;;;5053681;28;2028;-47
2022/11/13 03:32:40;;;;;;;;;;;;;;;;;;5053503;28;2115;-50
2022/11/13 03:35:26;;;;;;;;;;;;;;;;;;5053465;28;2140;-46
2022/11/13 03:38:15;;;;;;;;;;;;;;;;;;5053550;28;2139;-46
2022/11/13 03:41:01;;;;;;;;;;;;;;;;;;5053483;28;1896;-51
2022/11/13 03:43:47;;;;;;;;;;;;;;;;;;5052294;28;2208;-50
2022/11/13 03:46:33;;;;;;;;;;;;;;;;;;5053449;28;1969;-48
2022/11/13 03:49:18;;;;;;;;;;;;;;;;;;5053317;28;1971;-48
2022/11/13 03:52:04;;;;;;;;;;;;;;;;;;5053065;28;1848;-48
2022/11/13 03:54:50;;;;;;;;;;;;;;;;;;5053407;28;1963;-51
2022/11/13 03:57:36;;;;;;;;;;;;;;;;;;5053220;28;1908;-50
2022/11/13 04:00:22;;;;;;;;;;;;;;;;;;5053211;28;2183;-52
2022/11/13 04:03:08;;;;;;;;;;;;;;;;;;5052915;28;1955;-49
2022/11/13 04:05:53;;;;;;;;;;;;;;;;;;5053293;28;1982;-46
2022/11/13 04:08:39;;;;;;;;;;;;;;;;;;5052874;28;1948;-51
2022/11/13 04:11:25;;;;;;;;;;;;;;;;;;5051724;28;1972;-47
2022/11/13 04:14:11;;;;;;;;;;;;;;;;;;5052843;28;1891;-48
2022/11/13 04:16:57;;;;;;;;;;;;;;;;;;5052553;28;2103;-47
2022/11/13 04:19:43;;;;;;;;;;;;;;;;;;5051849;28;1911;-49
2022/11/13 04:22:29;;;;;;;;;;;;;;;;;;5052676;28;1917;-47
2022/11/13 04:25:15;;;;;;;;;;;;;;;;;;5051640;28;2076;-47
2022/11/13 04:28:01;;;;;;;;;;;;;;;;;;5051565;28;1885;-47
2022/11/13 04:30:47;;;;;;;;;;;;;;;;;;5052635;28;2072;-48
2022/11/13 04:33:33;;;;;;;;;;;;;;;;;;5052423;28;1912;-48
2022/11/13 04:36:19;;;;;;;;;;;;;;;;;;5052153;28;1906;-48
2022/11/13 04:39:05;;;;;;;;;;;;;;;;;;5052491;28;1787;-51
2022/11/13 04:44:56;;;;;;;;;;;;;;;;;;5052093;28;2025;-53
2022/11/13 04:47:42;;;;;;;;;;;;;;;;;;5052128;28;2119;-49
2022/11/13 04:50:28;;;;;;;;;;;;;;;;;;5052064;28;2139;-52
2022/11/13 04:53:14;;;;;;;;;;;;;;;;;;5052267;28;1955;-51
2022/11/13 04:56:00;;;;;;;;;;;;;;;;;;5051967;28;1981;-47
2022/11/13 04:58:46;;;;;;;;;;;;;;;;;;5051709;28;1851;-46
2022/11/13 05:01:33;;;;;;;;;;;;;;;;;;5051871;28;2002;-51
2022/11/13 05:04:19;;;;;;;;;;;;;;;;;;5051824;28;2081;-46
2022/11/13 05:07:05;;;;;;;;;;;;;;;;;;5051930;28;2053;-48
2022/11/13 05:09:52;;;;;;;;;;;;;;;;;;5052130;28;1956;-47
2022/11/13 05:12:38;;;;;;;;;;;;;;;;;;5051687;28;1910;-50
2022/11/13 05:15:25;;;;;;;;;;;;;;;;;;5051909;28;1985;-48
2022/11/13 05:18:11;;;;;;;;;;;;;;;;;;5052181;28;1999;-48
2022/11/13 05:20:57;;;;;;;;;;;;;;;;;;5051905;28;2071;-49
2022/11/13 05:23:43;;;;;;;;;;;;;;;;;;5051351;28;2027;-50
2022/11/13 05:26:29;;;;;;;;;;;;;;;;;;5051623;28;2059;-46
2022/11/13 05:29:16;;;;;;;;;;;;;;;;;;5051142;28;1810;-50
2022/11/13 05:32:02;;;;;;;;;;;;;;;;;;5051897;28;2030;-47
2022/11/13 05:34:49;;;;;;;;;;;;;;;;;;5051287;28;2011;-51
2022/11/13 05:37:34;;;;;;;;;;;;;;;;;;5051336;28;2044;-50
2022/11/13 05:40:20;;;;;;;;;;;;;;;;;;5051424;28;1888;-49
2022/11/13 05:43:07;;;;;;;;;;;;;;;;;;5051026;28;1925;-47
2022/11/13 05:45:58;;;;;;;;;;;;;;;;;;5051459;28;1969;-48
2022/11/13 05:48:45;;;;;;;;;;;;;;;;;;5051360;28;2075;-49
2022/11/13 05:51:32;;;;;;;;;;;;;;;;;;5051198;28;1862;-50
2022/11/13 05:54:18;;;;;;;;;;;;;;;;;;5051213;28;1858;-48
2022/11/13 05:57:04;;;;;;;;;;;;;;;;;;5050909;28;1939;-50
2022/11/13 05:59:52;;;;;;;;;;;;;;;;;;5051030;28;2073;-47
2022/11/13 06:02:37;;;;;;;;;;;;;;;;;;5050892;28;1897;-48
2022/11/13 06:05:23;;;;;;;;;;;;;;;;;;5051206;28;1858;-46
2022/11/13 06:08:09;;;;;;;;;;;;;;;;;;5051158;28;2011;-49
2022/11/13 06:11:03;;;;;;;;;;;;;;;;;;5051194;28;2044;-49
2022/11/13 06:13:50;;;;;;;;;;;;;;;;;;5051007;28;1946;-51
2022/11/13 06:16:36;;;;;;;;;;;;;;;;;;5051014;28;2041;-48
2022/11/13 06:19:23;;;;;;;;;;;;;;;;;;5051186;28;1970;-49
2022/11/13 06:22:08;;;;;;;;;;;;;;;;;;5050878;28;2183;-48
2022/11/13 06:24:55;;;;;;;;;;;;;;;;;;5050938;28;1891;-48
2022/11/13 06:27:41;;;;;;;;;;;;;;;;;;5050701;28;1929;-52
2022/11/13 06:30:27;;;;;;;;;;;;;;;;;;5050591;28;1900;-50
2022/11/13 06:33:12;;;;;;;;;;;;;;;;;;5050688;28;1856;-48
2022/11/13 06:36:02;;;;;;;;;;;;;;;;;;5050879;28;2023;-52
2022/11/13 06:38:48;;;;;;;;;;;;;;;;;;5050924;28;2100;-50
2022/11/13 06:41:34;;;;;;;;;;;;;;;;;;5051754;28;1968;-50
2022/11/13 06:44:20;;;;;;;;;;;;;;;;;;5054327;28;2034;-48
2022/11/13 06:47:05;;;;;;;;;;;;;;;;;;5054514;28;1815;-48
2022/11/13 06:49:51;;;;;;;;;;;;;;;;;;5054495;28;1966;-48
2022/11/13 06:52:37;;;;;;;;;;;;;;;;;;5054265;28;1996;-48
2022/11/13 06:55:22;;;;;;;;;;;;;;;;;;5054556;28;1843;-47
2022/11/13 06:58:08;;;;;;;;;;;;;;;;;;5054137;28;2001;-50
2022/11/13 07:00:53;;;;;;;;;;;;;;;;;;5053384;28;2005;-48
2022/11/13 07:03:40;;;;;;;;;;;;;;;;;;5054025;28;1880;-48
2022/11/13 07:06:25;;;;;;;;;;;;;;;;;;5054071;28;1883;-51
2022/11/13 07:09:11;;;;;;;;;;;;;;;;;;5054279;28;1908;-49
2022/11/13 07:11:56;;;;;;;;;;;;;;;;;;5054150;28;2155;-47
2022/11/13 07:14:42;;;;;;;;;;;;;;;;;;5053908;28;2138;-48
2022/11/13 07:17:27;;;;;;;;;;;;;;;;;;5053861;28;1969;-51
2022/11/13 07:20:13;;;;;;;;;;;;;;;;;;5053822;28;1913;-50
2022/11/13 07:23:00;;;;;;;;;;;;;;;;;;5053681;28;1954;-48
2022/11/13 07:25:45;;;;;;;;;;;;;;;;;;5053632;28;1996;-51
2022/11/13 07:28:31;;;;;;;;;;;;;;;;;;5053587;28;1853;-49
2022/11/13 07:31:17;;;;;;;;;;;;;;;;;;5053460;28;2141;-48
2022/11/13 07:34:03;;;;;;;;;;;;;;;;;;5053636;28;2242;-48
2022/11/13 07:36:48;;;;;;;;;;;;;;;;;;5053378;28;2026;-50
2022/11/13 07:39:34;;;;;;;;;;;;;;;;;;5053204;28;1934;-50
2022/11/13 07:42:19;;;;;;;;;;;;;;;;;;5053507;28;2062;-51
2022/11/13 07:45:05;;;;;;;;;;;;;;;;;;5053339;28;2098;-49
2022/11/13 07:47:51;;;;;;;;;;;;;;;;;;5053879;28;2078;-51
2022/11/13 07:50:37;;;;;;;;;;;;;;;;;;5053313;28;2083;-49
2022/11/13 07:53:23;;;;;;;;;;;;;;;;;;5053146;28;1884;-49
2022/11/13 07:56:09;;;;;;;;;;;;;;;;;;5052806;28;1941;-51
2022/11/13 07:58:54;;;;;;;;;;;;;;;;;;5052296;28;1958;-49
2022/11/13 08:01:40;;;;;;;;;;;;;;;;;;5053294;28;2098;-49
2022/11/13 08:04:26;;;;;;;;;;;;;;;;;;5053144;28;2039;-50
2022/11/13 08:07:12;;;;;;;;;;;;;;;;;;5053022;28;2019;-52
2022/11/13 08:09:57;;;;;;;;;;;;;;;;;;5053177;28;1993;-49
2022/11/13 08:12:43;;;;;;;;;;;;;;;;;;5053050;28;1920;-50
2022/11/13 08:15:29;;;;;;;;;;;;;;;;;;5052989;28;1884;-52
2022/11/13 08:18:15;;;;;;;;;;;;;;;;;;5052717;28;2030;-49
2022/11/13 08:21:04;;;;;;;;;;;;;;;;;;5052807;28;1899;-53
2022/11/13 08:23:53;;;;;;;;;;;;;;;;;;5052899;28;2130;-50
2022/11/13 08:26:39;;;;;;;;;;;;;;;;;;5052433;28;1990;-50
2022/11/13 08:29:25;;;;;;;;;;;;;;;;;;5052750;28;2045;-51
2022/11/13 08:32:14;;;;;;;;;;;;;;;;;;5052585;28;1912;-49
2022/11/13 08:34:59;;;;;;;;;;;;;;;;;;5052572;28;2180;-50
2022/11/13 08:37:45;;;;;;;;;;;;;;;;;;5052351;28;2018;-52
2022/11/13 08:40:30;;;;;;;;;;;;;;;;;;5052383;28;1920;-49
2022/11/13 08:43:16;;;;;;;;;;;;;;;;;;5051912;28;2182;-51
2022/11/13 08:46:02;;;;;;;;;;;;;;;;;;5051926;28;2058;-48
2022/11/13 08:48:48;;;;;;;;;;;;;;;;;;5052126;28;2026;-50
2022/11/13 08:51:33;;;;;;;;;;;;;;;;;;5052121;28;2016;-50
2022/11/13 08:54:19;;;;;;;;;;;;;;;;;;5052067;28;2025;-52
2022/11/13 08:57:05;;;;;;;;;;;;;;;;;;5052185;28;2027;-48
2022/11/13 08:59:50;;;;;;;;;;;;;;;;;;5051826;28;2042;-52
2022/11/13 09:02:36;;;;;;;;;;;;;;;;;;5051864;28;2009;-48
2022/11/13 09:05:23;;;;;;;;;;;;;;;;;;5051493;28;1798;-50
2022/11/13 09:08:09;;;;;;;;;;;;;;;;;;5051754;28;1894;-50
2022/11/13 09:10:56;;;;;;;;;;;;;;;;;;5052084;28;1917;-52
2022/11/13 09:13:41;;;;;;;;;;;;;;;;;;5051661;28;1993;-49
2022/11/13 09:16:30;;;;;;;;;;;;;;;;;;5051877;28;1986;-52
2022/11/13 09:19:16;;;;;;;;;;;;;;;;;;5051617;28;1920;-52
2022/11/13 09:22:02;;;;;;;;;;;;;;;;;;5051537;28;1961;-52
2022/11/13 09:24:48;;;;;;;;;;;;;;;;;;5051432;28;2138;-52
2022/11/13 09:27:33;;;;;;;;;;;;;;;;;;5051421;28;1871;-49
2022/11/13 09:30:19;;;;;;;;;;;;;;;;;;5051432;28;1864;-49
2022/11/13 09:33:05;;;;;;;;;;;;;;;;;;5051323;28;2117;-49
2022/11/13 09:35:51;;;;;;;;;;;;;;;;;;5051141;28;1936;-49
2022/11/13 09:38:37;;;;;;;;;;;;;;;;;;5050612;28;2130;-51
2022/11/13 09:41:25;;;;;;;;;;;;;;;;;;5051491;28;1969;-48
2022/11/13 09:44:14;;;;;;;;;;;;;;;;;;5050172;28;1971;-50
2022/11/13 09:47:03;;;;;;;;;;;;;;;;;;5051239;28;1909;-50
2022/11/13 09:50:09;;;;;;;;;;;;;;;;;;5050841;28;1975;-49
2022/11/13 09:52:55;;;;;;;;;;;;;;;;;;5051216;28;1939;-53
2022/11/13 09:55:45;;;;;;;;;;;;;;;;;;5051099;28;1858;-51
2022/11/13 09:58:43;;;;;;;;;;;;;;;;;;5050955;28;2029;-49
2022/11/13 10:01:32;;;;;;;;;;;;;;;;;;5051014;28;1748;-50
2022/11/13 10:04:22;;;;;;;;;;;;;;;;;;5050969;28;1963;-49
2022/11/13 10:07:15;;;;;;;;;;;;;;;;;;5050969;28;1921;-52
2022/11/13 10:10:15;;;;;;;;;;;;;;;;;;5050857;28;1997;-51
2022/11/13 10:13:02;;;;;;;;;;;;;;;;;;5051014;28;2055;-52
2022/11/13 10:15:49;;;;;;;;;;;;;;;;;;5050756;28;1891;-49
2022/11/13 10:18:36;;;;;;;;;;;;;;;;;;5054706;28;1911;-52
2022/11/13 10:21:30;;;;;;;;;;;;;;;;;;5055559;28;2018;-49
2022/11/13 10:24:19;;;;;;;;;;;;;;;;;;5054805;28;1922;-47
2022/11/13 10:27:09;;;;;;;;;;;;;;;;;;5054879;28;1970;-51
2022/11/13 10:29:55;;;;;;;;;;;;;;;;;;5054955;28;1930;-49
2022/11/13 10:32:42;;;;;;;;;;;;;;;;;;5054511;28;1934;-51
2022/11/13 10:35:35;;;;;;;;;;;;;;;;;;5054809;28;1854;-48
2022/11/13 10:38:27;;;;;;;;;;;;;;;;;;5054549;28;1971;-51
2022/11/13 10:41:15;;;;;;;;;;;;;;;;;;5054524;28;2118;-50
2022/11/13 10:44:05;;;;;;;;;;;;;;;;;;5054608;28;2038;-50
2022/11/13 10:46:51;;;;;;;;;;;;;;;;;;5054773;28;2180;-47
2022/11/13 10:49:37;;;;;;;;;;;;;;;;;;5053501;28;2058;-53
2022/11/13 10:52:23;;;;;;;;;;;;;;;;;;5054539;28;2021;-52
2022/11/13 10:55:16;;;;;;;;;;;;;;;;;;5054549;28;1908;-52
2022/11/13 10:58:03;;;;;;;;;;;;;;;;;;5054153;28;2042;-53
2022/11/13 11:00:48;;;;;;;;;;;;;;;;;;5054311;28;1969;-48
2022/11/13 11:03:34;;;;;;;;;;;;;;;;;;5053855;28;1905;-49
2022/11/13 11:06:30;;;;;;;;;;;;;;;;;;5054324;28;2038;-49
2022/11/13 11:09:37;;;;;;;;;;;;;;;;;;5054039;28;2118;-52
2022/11/13 11:12:23;;;;;;;;;;;;;;;;;;5054275;28;2094;-52
2022/11/13 11:15:35;;;;;;;;;;;;;;;;;;5054021;28;2018;-48
2022/11/13 11:18:36;;;;;;;;;;;;;;;;;;5051097;28;1980;-51
2022/11/13 11:21:25;;;;;;;;;;;;;;;;;;5053805;28;1864;-50
2022/11/13 11:24:11;;;;;;;;;;;;;;;;;;5053935;28;1935;-49
2022/11/13 11:27:29;;;;;;;;;;;;;;;;;;5053089;28;1864;-50
2022/11/13 11:30:15;;;;;;;;;;;;;;;;;;5028355;28;1903;-53
2022/11/13 11:33:19;;;;;;;;;;;;;;;;;;5053279;28;1881;-50
2022/11/13 11:36:04;;;;;;;;;;;;;;;;;;5053937;28;1964;-51
2022/11/13 11:39:05;;;;;;;;;;;;;;;;;;5053439;28;1959;-52
2022/11/13 11:41:54;;;;;;;;;;;;;;;;;;5053319;28;1889;-51
2022/11/13 11:44:51;;;;;;;;;;;;;;;;;;5053191;28;1908;-48
2022/11/13 11:47:38;;;;;;;;;;;;;;;;;;5053076;28;2035;-47
2022/11/13 11:50:47;;;;;;;;;;;;;;;;;;5053631;28;2102;-52
2022/11/13 11:53:42;;;;;;;;;;;;;;;;;;5052999;28;2122;-50
2022/11/13 11:56:46;;;;;;;;;;;;;;;;;;5053362;28;1975;-48
2022/11/13 11:59:37;;;;;;;;;;;;;;;;;;5053104;28;2115;-50
2022/11/13 12:02:45;;;;;;;;;;;;;;;;;;5053269;28;1950;-48
2022/11/13 12:05:50;;;;;;;;;;;;;;;;;;5052813;28;2081;-49
2022/11/13 12:08:55;;;;;;;;;;;;;;;;;;5052922;28;1876;-48
2022/11/13 12:11:52;;;;;;;;;;;;;;;;;;5053057;28;2040;-50
2022/11/13 12:14:46;;;;;;;;;;;;;;;;;;5053322;28;1941;-51
2022/11/13 12:17:43;;;;;;;;;;;;;;;;;;5052744;28;2109;-52
2022/11/13 12:20:32;;;;;;;;;;;;;;;;;;5052979;28;2107;-48
2022/11/13 12:23:34;;;;;;;;;;;;;;;;;;5052603;28;1879;-52
2022/11/13 12:26:37;;;;;;;;;;;;;;;;;;5052650;28;1986;-48
2022/11/13 12:29:32;;;;;;;;;;;;;;;;;;5052687;28;1942;-48
2022/11/13 12:32:33;;;;;;;;;;;;;;;;;;5052540;28;1975;-50
2022/11/13 12:35:20;;;;;;;;;;;;;;;;;;5052297;28;2120;-50
2022/11/13 12:38:17;;;;;;;;;;;;;;;;;;5052445;28;2213;-47
2022/11/13 12:41:14;;;;;;;;;;;;;;;;;;5051899;28;1970;-47
2022/11/13 12:44:18;;;;;;;;;;;;;;;;;;5052248;28;2087;-51
2022/11/13 12:47:06;;;;;;;;;;;;;;;;;;5052400;28;1870;-53
2022/11/13 12:49:59;;;;;;;;;;;;;;;;;;5052336;28;1913;-48
2022/11/13 12:52:56;;;;;;;;;;;;;;;;;;5052159;28;1964;-49
2022/11/13 12:55:55;;;;;;;;;;;;;;;;;;5052034;28;2030;-50
2022/11/13 12:58:50;;;;;;;;;;;;;;;;;;5051810;28;1914;-49
2022/11/13 13:02:00;;;;;;;;;;;;;;;;;;5052244;28;1990;-48
2022/11/13 13:04:58;;;;;;;;;;;;;;;;;;5051726;28;1945;-50
2022/11/13 13:07:50;;;;;;;;;;;;;;;;;;5051730;28;1979;-48
2022/11/13 13:10:46;;;;;;;;;;;;;;;;;;5051733;28;1984;-48
2022/11/13 13:13:45;;;;;;;;;;;;;;;;;;5051583;28;2027;-50
2022/11/13 13:16:30;;;;;;;;;;;;;;;;;;5051618;28;1891;-48
2022/11/13 13:19:24;;;;;;;;;;;;;;;;;;5051298;28;2029;-51
2022/11/13 13:22:11;;;;;;;;;;;;;;;;;;5051402;28;2030;-49
2022/11/13 13:25:02;;;;;;;;;;;;;;;;;;5051694;28;2046;-52
2022/11/13 13:28:02;;;;;;;;;;;;;;;;;;5051104;28;1859;-51
2022/11/13 13:31:08;;;;;;;;;;;;;;;;;;5051274;28;1830;-49
2022/11/13 13:34:13;;;;;;;;;;;;;;;;;;5051462;28;1955;-51
2022/11/13 13:37:08;;;;;;;;;;;;;;;;;;5051287;28;2007;-46
2022/11/13 13:39:57;;;;;;;;;;;;;;;;;;5051228;28;1803;-51
2022/11/13 13:42:49;;;;;;;;;;;;;;;;;;5051189;28;1999;-48
2022/11/13 13:45:54;;;;;;;;;;;;;;;;;;5031364;28;2105;-52
2022/11/13 13:48:41;;;;;;;;;;;;;;;;;;5031221;28;1824;-52
2022/11/13 13:51:32;;;;;;;;;;;;;;;;;;5031188;28;1839;-49
2022/11/13 13:54:19;;;;;;;;;;;;;;;;;;5044258;28;2132;-49
2022/11/13 13:57:10;;;;;;;;;;;;;;;;;;5030983;28;2075;-52
2022/11/13 13:59:56;;;;;;;;;;;;;;;;;;5031023;28;1966;-52
2022/11/13 14:02:46;;;;;;;;;;;;;;;;;;5031143;28;1983;-47
2022/11/13 14:05:34;;;;;;;;;;;;;;;;;;5030757;28;2015;-50
2022/11/13 14:08:24;;;;;;;;;;;;;;;;;;5031216;28;1979;-50
2022/11/13 14:11:16;;;;;;;;;;;;;;;;;;5031173;28;2056;-52
2022/11/13 14:14:06;;;;;;;;;;;;;;;;;;5031110;28;2064;-50
2022/11/13 14:16:53;;;;;;;;;;;;;;;;;;5030904;28;1923;-49
2022/11/13 14:19:39;;;;;;;;;;;;;;;;;;5047600;28;2046;-51
2022/11/13 14:22:25;;;;;;;;;;;;;;;;;;5049991;28;1954;-49
2022/11/13 14:25:21;;;;;;;;;;;;;;;;;;5050434;28;2099;-51
2022/11/13 14:28:21;;;;;;;;;;;;;;;;;;5050530;28;1855;-51
2022/11/13 14:31:08;;;;;;;;;;;;;;;;;;5050624;28;1940;-49
2022/11/13 14:33:55;;;;;;;;;;;;;;;;;;5050969;28;1690;-51
2022/11/13 14:36:41;;;;;;;;;;;;;;;;;;5050817;28;1872;-50
2022/11/13 14:39:31;;;;;;;;;;;;;;;;;;5050745;28;2099;-52
2022/11/13 14:42:19;;;;;;;;;;;;;;;;;;5050829;28;1963;-50
2022/11/13 14:45:15;;;;;;;;;;;;;;;;;;5050446;28;2158;-50
2022/11/13 14:48:19;;;;;;;;;;;;;;;;;;5050822;28;1944;-51
2022/11/13 14:51:06;;;;;;;;;;;;;;;;;;5050512;28;1947;-48
2022/11/13 14:53:56;;;;;;;;;;;;;;;;;;5050516;28;1847;-50
2022/11/13 14:56:42;;;;;;;;;;;;;;;;;;5050695;28;1831;-50
2022/11/13 14:59:28;;;;;;;;;;;;;;;;;;5050458;28;2037;-52
2022/11/13 15:02:14;;;;;;;;;;;;;;;;;;5051109;28;1903;-50
2022/11/13 15:05:00;;;;;;;;;;;;;;;;;;5054040;28;2004;-53
2022/11/13 15:07:46;;;;;;;;;;;;;;;;;;5054151;28;1998;-51
2022/11/13 15:10:32;;;;;;;;;;;;;;;;;;5054196;28;2037;-52
2022/11/13 15:13:18;;;;;;;;;;;;;;;;;;5053970;28;1984;-49
2022/11/13 15:16:04;;;;;;;;;;;;;;;;;;5053869;28;2014;-47
2022/11/13 15:18:59;;;;;;;;;;;;;;;;;;5053878;28;2076;-50
2022/11/13 15:21:45;;;;;;;;;;;;;;;;;;5053786;28;1864;-50
2022/11/13 15:24:50;;;;;;;;;;;;;;;;;;5053757;28;1922;-50
2022/11/13 15:27:35;;;;;;;;;;;;;;;;;;5053581;28;1881;-51
2022/11/13 15:30:27;;;;;;;;;;;;;;;;;;5054122;28;1933;-51
2022/11/13 15:33:13;;;;;;;;;;;;;;;;;;5053542;28;1721;-51
2022/11/13 15:36:00;;;;;;;;;;;;;;;;;;5053403;28;2067;-50
2022/11/13 15:38:46;;;;;;;;;;;;;;;;;;5053316;28;1905;-52
2022/11/13 15:41:32;;;;;;;;;;;;;;;;;;5053308;28;2118;-49
2022/11/13 15:44:18;;;;;;;;;;;;;;;;;;5053290;28;1875;-48
2022/11/13 15:47:14;;;;;;;;;;;;;;;;;;5053563;28;1954;-51
2022/11/13 15:50:00;;;;;;;;;;;;;;;;;;5053337;28;2069;-51
2022/11/13 15:52:57;;;;;;;;;;;;;;;;;;5053368;28;1885;-50
2022/11/13 15:55:49;;;;;;;;;;;;;;;;;;5053331;28;2289;-52
2022/11/13 15:58:35;;;;;;;;;;;;;;;;;;5053022;28;2036;-46
2022/11/13 16:01:21;;;;;;;;;;;;;;;;;;5052955;28;2032;-48
2022/11/13 16:04:09;;;;;;;;;;;;;;;;;;5053103;28;1886;-49
2022/11/13 16:06:55;;;;;;;;;;;;;;;;;;5053049;28;1996;-53
2022/11/13 16:09:43;;;;;;;;;;;;;;;;;;5052572;28;2250;-50
2022/11/13 16:12:28;;;;;;;;;;;;;;;;;;5053121;28;2040;-48
2022/11/13 16:15:15;;;;;;;;;;;;;;;;;;5052826;28;1988;-48
2022/11/13 16:18:01;;;;;;;;;;;;;;;;;;5052726;28;1922;-52
2022/11/13 16:20:46;;;;;;;;;;;;;;;;;;5052552;28;2074;-49
2022/11/13 16:23:32;;;;;;;;;;;;;;;;;;5052545;28;1994;-48
2022/11/13 16:26:25;;;;;;;;;;;;;;;;;;5052592;28;1854;-52
2022/11/13 16:29:15;;;;;;;;;;;;;;;;;;5052509;28;1882;-50
2022/11/13 16:32:01;;;;;;;;;;;;;;;;;;5052481;28;1965;-52
2022/11/13 16:34:47;;;;;;;;;;;;;;;;;;5052427;28;1984;-51
2022/11/13 16:37:32;;;;;;;;;;;;;;;;;;5052301;28;2140;-49
2022/11/13 16:40:19;;;;;;;;;;;;;;;;;;5052267;28;1964;-52
2022/11/13 16:43:05;;;;;;;;;;;;;;;;;;5051759;28;1838;-47
2022/11/13 16:45:52;;;;;;;;;;;;;;;;;;5032413;28;2163;-50
2022/11/13 16:48:37;;;;;;;;;;;;;;;;;;5032247;28;1973;-49
2022/11/13 16:51:23;;;;;;;;;;;;;;;;;;5032150;28;1948;-49
2022/11/13 16:54:09;;;;;;;;;;;;;;;;;;5032227;28;1983;-52
2022/11/13 16:56:55;;;;;;;;;;;;;;;;;;5032484;28;1974;-49
2022/11/13 16:59:40;;;;;;;;;;;;;;;;;;5031958;28;2226;-51
2022/11/13 17:02:26;;;;;;;;;;;;;;;;;;5032238;28;2162;-50
2022/11/13 17:05:12;;;;;;;;;;;;;;;;;;5031888;28;2098;-50
2022/11/13 17:07:59;;;;;;;;;;;;;;;;;;5032092;28;1902;-48
2022/11/13 17:10:44;;;;;;;;;;;;;;;;;;5031850;28;2011;-51
2022/11/13 17:13:30;;;;;;;;;;;;;;;;;;5031938;28;1965;-49
2022/11/13 17:16:16;;;;;;;;;;;;;;;;;;5031949;28;1897;-48
2022/11/13 17:19:02;;;;;;;;;;;;;;;;;;5031419;28;2159;-48
2022/11/13 17:21:48;;;;;;;;;;;;;;;;;;5031664;28;1976;-48
2022/11/13 17:24:33;;;;;;;;;;;;;;;;;;5031383;28;2193;-52
2022/11/13 17:27:19;;;;;;;;;;;;;;;;;;5031519;28;2141;-46
2022/11/13 17:30:05;;;;;;;;;;;;;;;;;;5031442;28;2058;-49
2022/11/13 17:32:51;;;;;;;;;;;;;;;;;;5031448;28;2059;-49
2022/11/13 17:35:36;;;;;;;;;;;;;;;;;;5031140;28;1951;-48
2022/11/13 17:38:22;;;;;;;;;;;;;;;;;;5031314;28;2037;-51
2022/11/13 17:41:09;;;;;;;;;;;;;;;;;;5031529;28;2031;-49
2022/11/13 17:43:55;;;;;;;;;;;;;;;;;;5038743;28;1967;-51
2022/11/13 17:46:45;;;;;;;;;;;;;;;;;;5051257;28;1877;-52
2022/11/13 17:49:31;;;;;;;;;;;;;;;;;;5051267;28;2079;-50
2022/11/13 17:52:16;;;;;;;;;;;;;;;;;;5051166;28;1889;-47
2022/11/13 17:55:04;;;;;;;;;;;;;;;;;;5051135;28;1921;-50
2022/11/13 17:57:50;;;;;;;;;;;;;;;;;;5051031;28;1947;-49
2022/11/13 18:00:36;;;;;;;;;;;;;;;;;;5050924;28;2051;-51
2022/11/13 18:03:22;;;;;;;;;;;;;;;;;;5050930;28;1825;-49
2022/11/13 18:06:15;;;;;;;;;;;;;;;;;;5051323;28;1921;-50
2022/11/13 18:09:03;;;;;;;;;;;;;;;;;;5050859;28;1895;-46
2022/11/13 18:11:49;;;;;;;;;;;;;;;;;;5050841;28;1955;-49
2022/11/13 18:14:34;;;;;;;;;;;;;;;;;;5050916;28;1988;-49
2022/11/13 18:17:23;;;;;;;;;;;;;;;;;;5050632;28;2060;-47
2022/11/13 18:20:09;;;;;;;;;;;;;;;;;;5050953;28;2010;-48
2022/11/13 18:22:55;;;;;;;;;;;;;;;;;;5051088;28;1942;-49
2022/11/13 18:25:41;;;;;;;;;;;;;;;;;;5050718;28;2026;-47
2022/11/13 18:28:27;;;;;;;;;;;;;;;;;;5051373;28;1991;-48
2022/11/13 18:31:18;;;;;;;;;;;;;;;;;;5050794;28;2037;-47
2022/11/13 18:34:04;;;;;;;;;;;;;;;;;;5050712;28;1948;-48
2022/11/13 18:36:51;;;;;;;;;;;;;;;;;;5050955;28;1891;-49
2022/11/13 18:39:36;;;;;;;;;;;;;;;;;;5054607;28;2106;-46
2022/11/13 18:42:21;;;;;;;;;;;;;;;;;;5054410;28;1903;-46
2022/11/13 18:45:07;;;;;;;;;;;;;;;;;;5054375;28;2009;-48
2022/11/13 18:47:54;;;;;;;;;;;;;;;;;;5054575;28;2064;-50
2022/11/13 18:50:39;;;;;;;;;;;;;;;;;;5054307;28;2035;-49
2022/11/13 18:53:26;;;;;;;;;;;;;;;;;;5054385;28;1881;-50
2022/11/13 18:56:16;;;;;;;;;;;;;;;;;;5054386;28;2115;-47
2022/11/13 18:59:02;;;;;;;;;;;;;;;;;;5053844;28;2090;-49
2022/11/13 19:01:48;;;;;;;;;;;;;;;;;;5053732;28;1864;-47
2022/11/13 19:04:34;;;;;;;;;;;;;;;;;;5054271;28;2018;-46
2022/11/13 19:07:20;;;;;;;;;;;;;;;;;;5053708;28;2033;-50
2022/11/13 19:10:06;;;;;;;;;;;;;;;;;;5054271;28;2323;-49
2022/11/13 19:12:51;;;;;;;;;;;;;;;;;;5054025;28;1862;-46
2022/11/13 19:15:37;;;;;;;;;;;;;;;;;;5053876;28;1858;-49
2022/11/13 19:18:23;;;;;;;;;;;;;;;;;;5054047;28;1983;-46
2022/11/13 19:21:10;;;;;;;;;;;;;;;;;;5053993;28;1979;-47
2022/11/13 19:23:57;;;;;;;;;;;;;;;;;;5054268;28;2036;-50
2022/11/13 19:26:43;;;;;;;;;;;;;;;;;;5053771;28;1832;-49
2022/11/13 19:29:29;;;;;;;;;;;;;;;;;;5054121;28;2018;-48
2022/11/13 19:32:15;;;;;;;;;;;;;;;;;;5053605;28;1818;-45